sensor_id;sensor_type;location;lat;lon;timestamp;noise_LAeq;noise_LA_min;noise_LA_max;noise_LA01;noise_LA95
63692;Laerm;49838;51.798;10.954;2023-12-22T00:01:56;53.98;40.92;73.13;;
63692;Laerm;49838;51.798;10.954;2023-12-22T00:04:23;58.14;41.75;77.56;;
63692;Laerm;49838;51.798;10.954;2023-12-22T00:06:50;52.32;38.83;71.53;;
63692;Laerm;49838;51.798;10.954;2023-12-22T00:09:18;56.42;44.42;71.28;;
63692;Laerm;49838;51.798;10.954;2023-12-22T00:11:47;58.56;45.04;80.22;;
63692;Laerm;49838;51.798;10.954;2023-12-22T00:14:14;61.81;50.21;86.55;;
63692;Laerm;49838;51.798;10.954;2023-12-22T00:16:41;52.27;42.97;68.51;;
63692;Laerm;49838;51.798;10.954;2023-12-22T00:19:08;51.00;43.69;64.38;;
63692;Laerm;49838;51.798;10.954;2023-12-22T00:21:36;55.63;43.17;71.87;;
63692;Laerm;49838;51.798;10.954;2023-12-22T00:24:03;60.14;44.85;79.45;;
63692;Laerm;49838;51.798;10.954;2023-12-22T00:26:30;58.62;43.81;82.37;;
63692;Laerm;49838;51.798;10.954;2023-12-22T00:28:59;59.51;42.91;79.38;;
63692;Laerm;49838;51.798;10.954;2023-12-22T00:31:26;56.43;40.88;77.36;;
63692;Laerm;49838;51.798;10.954;2023-12-22T00:33:53;50.85;42.28;71.28;;
63692;Laerm;49838;51.798;10.954;2023-12-22T00:36:21;57.02;43.03;81.38;;
63692;Laerm;49838;51.798;10.954;2023-12-22T00:38:50;50.46;40.09;70.69;;
63692;Laerm;49838;51.798;10.954;2023-12-22T00:41:17;53.76;40.14;72.94;;
63692;Laerm;49838;51.798;10.954;2023-12-22T00:43:45;51.10;39.43;65.91;;
63692;Laerm;49838;51.798;10.954;2023-12-22T00:46:13;47.57;38.85;64.88;;
63692;Laerm;49838;51.798;10.954;2023-12-22T00:48:40;52.58;40.19;72.20;;
63692;Laerm;49838;51.798;10.954;2023-12-22T00:51:07;52.74;40.06;73.80;;
63692;Laerm;49838;51.798;10.954;2023-12-22T00:53:35;57.79;45.10;78.94;;
63692;Laerm;49838;51.798;10.954;2023-12-22T00:56:03;58.84;45.02;73.36;;
63692;Laerm;49838;51.798;10.954;2023-12-22T00:58:31;53.91;41.34;76.36;;
63692;Laerm;49838;51.798;10.954;2023-12-22T01:00:58;52.89;39.59;65.51;;
63692;Laerm;49838;51.798;10.954;2023-12-22T01:03:27;49.03;40.22;66.82;;
63692;Laerm;49838;51.798;10.954;2023-12-22T01:05:54;56.84;42.36;74.07;;
63692;Laerm;49838;51.798;10.954;2023-12-22T01:08:22;49.83;42.83;67.21;;
63692;Laerm;49838;51.798;10.954;2023-12-22T01:10:49;54.99;43.44;69.07;;
63692;Laerm;49838;51.798;10.954;2023-12-22T01:13:16;57.28;43.15;80.95;;
63692;Laerm;49838;51.798;10.954;2023-12-22T01:15:43;51.52;40.55;73.23;;
63692;Laerm;49838;51.798;10.954;2023-12-22T01:18:11;49.97;41.11;65.24;;
63692;Laerm;49838;51.798;10.954;2023-12-22T01:20:40;52.18;42.84;68.92;;
63692;Laerm;49838;51.798;10.954;2023-12-22T01:23:07;49.50;37.48;68.51;;
63692;Laerm;49838;51.798;10.954;2023-12-22T01:25:34;55.25;42.96;71.97;;
63692;Laerm;49838;51.798;10.954;2023-12-22T01:28:01;49.84;40.66;66.95;;
63692;Laerm;49838;51.798;10.954;2023-12-22T01:30:29;50.22;40.75;68.85;;
63692;Laerm;49838;51.798;10.954;2023-12-22T01:32:56;47.84;38.73;66.32;;
63692;Laerm;49838;51.798;10.954;2023-12-22T01:35:23;53.00;40.19;71.49;;
63692;Laerm;49838;51.798;10.954;2023-12-22T01:37:52;56.34;39.97;81.60;;
63692;Laerm;49838;51.798;10.954;2023-12-22T01:40:20;51.65;42.20;67.82;;
63692;Laerm;49838;51.798;10.954;2023-12-22T01:42:48;48.43;41.51;61.15;;
63692;Laerm;49838;51.798;10.954;2023-12-22T01:45:15;55.73;42.05;76.56;;
63692;Laerm;49838;51.798;10.954;2023-12-22T01:47:42;50.29;42.85;66.33;;
63692;Laerm;49838;51.798;10.954;2023-12-22T01:50:11;52.92;41.94;71.13;;
63692;Laerm;49838;51.798;10.954;2023-12-22T01:52:39;50.62;41.76;65.88;;
63692;Laerm;49838;51.798;10.954;2023-12-22T01:55:10;49.59;41.61;68.58;;
63692;Laerm;49838;51.798;10.954;2023-12-22T01:57:39;52.08;39.00;69.16;;
63692;Laerm;49838;51.798;10.954;2023-12-22T02:00:07;53.32;41.23;80.06;;
63692;Laerm;49838;51.798;10.954;2023-12-22T02:02:35;51.36;43.12;66.04;;
63692;Laerm;49838;51.798;10.954;2023-12-22T02:05:04;59.59;45.31;82.89;;
63692;Laerm;49838;51.798;10.954;2023-12-22T02:07:35;52.50;40.60;71.38;;
63692;Laerm;49838;51.798;10.954;2023-12-22T02:10:02;47.39;40.20;64.81;;
63692;Laerm;49838;51.798;10.954;2023-12-22T02:12:31;56.25;44.38;74.84;;
63692;Laerm;49838;51.798;10.954;2023-12-22T02:14:59;54.10;44.28;69.11;;
63692;Laerm;49838;51.798;10.954;2023-12-22T02:17:32;59.27;44.96;79.36;;
63692;Laerm;49838;51.798;10.954;2023-12-22T02:20:00;53.75;43.81;72.90;;
63692;Laerm;49838;51.798;10.954;2023-12-22T02:22:30;53.74;40.22;71.94;;
63692;Laerm;49838;51.798;10.954;2023-12-22T02:24:57;56.63;43.19;77.44;;
63692;Laerm;49838;51.798;10.954;2023-12-22T02:27:28;58.96;40.75;85.56;;
63692;Laerm;49838;51.798;10.954;2023-12-22T02:30:05;54.50;43.78;73.65;;
63692;Laerm;49838;51.798;10.954;2023-12-22T02:32:36;54.14;43.07;70.74;;
63692;Laerm;49838;51.798;10.954;2023-12-22T02:35:07;58.55;46.06;75.57;;
63692;Laerm;49838;51.798;10.954;2023-12-22T02:37:39;52.94;42.54;70.44;;
63692;Laerm;49838;51.798;10.954;2023-12-22T02:40:07;49.29;41.18;60.04;;
63692;Laerm;49838;51.798;10.954;2023-12-22T02:42:36;54.37;43.29;77.69;;
63692;Laerm;49838;51.798;10.954;2023-12-22T02:45:05;48.64;39.85;68.53;;
63692;Laerm;49838;51.798;10.954;2023-12-22T02:47:33;45.55;40.38;60.66;;
63692;Laerm;49838;51.798;10.954;2023-12-22T02:50:00;52.91;35.85;69.93;;
63692;Laerm;49838;51.798;10.954;2023-12-22T02:52:27;60.87;43.67;78.37;;
63692;Laerm;49838;51.798;10.954;2023-12-22T02:54:56;59.88;42.75;77.32;;
63692;Laerm;49838;51.798;10.954;2023-12-22T02:57:23;51.10;41.93;67.55;;
63692;Laerm;49838;51.798;10.954;2023-12-22T02:59:50;57.33;44.29;77.93;;
63692;Laerm;49838;51.798;10.954;2023-12-22T03:02:18;51.75;40.21;76.87;;
63692;Laerm;49838;51.798;10.954;2023-12-22T03:04:45;55.97;39.43;72.26;;
63692;Laerm;49838;51.798;10.954;2023-12-22T03:07:13;48.22;38.04;65.03;;
63692;Laerm;49838;51.798;10.954;2023-12-22T03:09:41;56.25;39.59;73.17;;
63692;Laerm;49838;51.798;10.954;2023-12-22T03:12:10;55.56;41.11;75.07;;
63692;Laerm;49838;51.798;10.954;2023-12-22T03:14:38;50.13;41.88;68.13;;
63692;Laerm;49838;51.798;10.954;2023-12-22T03:17:06;52.94;41.27;76.92;;
63692;Laerm;49838;51.798;10.954;2023-12-22T03:19:33;54.00;42.10;70.93;;
63692;Laerm;49838;51.798;10.954;2023-12-22T03:22:01;52.62;39.98;75.60;;
63692;Laerm;49838;51.798;10.954;2023-12-22T03:24:28;56.83;40.48;78.86;;
63692;Laerm;49838;51.798;10.954;2023-12-22T03:26:55;53.42;42.41;71.54;;
63692;Laerm;49838;51.798;10.954;2023-12-22T03:29:24;52.89;42.96;68.00;;
63692;Laerm;49838;51.798;10.954;2023-12-22T03:31:51;48.47;39.95;67.77;;
63692;Laerm;49838;51.798;10.954;2023-12-22T03:34:18;55.14;42.59;72.66;;
63692;Laerm;49838;51.798;10.954;2023-12-22T03:36:45;54.86;42.19;76.02;;
63692;Laerm;49838;51.798;10.954;2023-12-22T03:39:14;49.63;41.30;65.17;;
63692;Laerm;49838;51.798;10.954;2023-12-22T03:41:42;59.04;42.83;83.44;;
63692;Laerm;49838;51.798;10.954;2023-12-22T03:44:09;55.58;44.51;80.07;;
63692;Laerm;49838;51.798;10.954;2023-12-22T03:46:38;56.81;44.02;73.06;;
63692;Laerm;49838;51.798;10.954;2023-12-22T03:49:05;58.11;47.16;70.26;;
63692;Laerm;49838;51.798;10.954;2023-12-22T03:51:32;54.57;43.44;70.63;;
63692;Laerm;49838;51.798;10.954;2023-12-22T03:53:59;59.47;43.42;81.49;;
63692;Laerm;49838;51.798;10.954;2023-12-22T03:56:27;52.68;40.55;71.18;;
63692;Laerm;49838;51.798;10.954;2023-12-22T03:58:55;55.94;45.83;70.48;;
63692;Laerm;49838;51.798;10.954;2023-12-22T04:01:22;59.57;43.37;82.20;;
63692;Laerm;49838;51.798;10.954;2023-12-22T04:03:51;56.22;43.32;73.78;;
63692;Laerm;49838;51.798;10.954;2023-12-22T04:06:18;59.49;46.00;79.75;;
63692;Laerm;49838;51.798;10.954;2023-12-22T04:08:45;55.34;44.02;72.60;;
63692;Laerm;49838;51.798;10.954;2023-12-22T04:11:12;58.93;44.45;77.28;;
63692;Laerm;49838;51.798;10.954;2023-12-22T04:13:39;59.37;45.19;81.85;;
63692;Laerm;49838;51.798;10.954;2023-12-22T04:16:07;56.98;44.64;69.84;;
63692;Laerm;49838;51.798;10.954;2023-12-22T04:18:34;56.24;44.96;70.38;;
63692;Laerm;49838;51.798;10.954;2023-12-22T04:21:03;59.51;46.35;79.70;;
63692;Laerm;49838;51.798;10.954;2023-12-22T04:23:30;63.74;46.80;84.59;;
63692;Laerm;49838;51.798;10.954;2023-12-22T04:25:58;57.66;42.78;76.95;;
63692;Laerm;49838;51.798;10.954;2023-12-22T04:28:25;47.23;41.96;55.79;;
63692;Laerm;49838;51.798;10.954;2023-12-22T04:30:52;56.29;44.47;74.24;;
63692;Laerm;49838;51.798;10.954;2023-12-22T04:33:19;54.82;43.85;74.37;;
63692;Laerm;49838;51.798;10.954;2023-12-22T04:35:47;55.35;43.57;69.43;;
63692;Laerm;49838;51.798;10.954;2023-12-22T04:38:15;56.20;42.77;70.63;;
63692;Laerm;49838;51.798;10.954;2023-12-22T04:40:43;57.92;42.13;73.52;;
63692;Laerm;49838;51.798;10.954;2023-12-22T04:43:10;59.43;46.70;77.36;;
63692;Laerm;49838;51.798;10.954;2023-12-22T04:45:37;54.13;44.40;71.61;;
63692;Laerm;49838;51.798;10.954;2023-12-22T04:48:06;51.47;43.17;69.21;;
63692;Laerm;49838;51.798;10.954;2023-12-22T04:50:33;55.56;42.69;71.86;;
63692;Laerm;49838;51.798;10.954;2023-12-22T04:53:00;57.75;46.89;71.46;;
63692;Laerm;49838;51.798;10.954;2023-12-22T04:55:29;57.83;45.13;75.69;;
63692;Laerm;49838;51.798;10.954;2023-12-22T04:57:56;55.25;43.54;71.51;;
63692;Laerm;49838;51.798;10.954;2023-12-22T05:00:25;59.44;44.54;78.55;;
63692;Laerm;49838;51.798;10.954;2023-12-22T05:02:52;61.31;44.47;77.30;;
63692;Laerm;49838;51.798;10.954;2023-12-22T05:05:19;48.87;40.46;66.98;;
63692;Laerm;49838;51.798;10.954;2023-12-22T05:07:47;54.31;39.93;73.03;;
63692;Laerm;49838;51.798;10.954;2023-12-22T05:10:15;56.47;42.62;78.16;;
63692;Laerm;49838;51.798;10.954;2023-12-22T05:12:43;51.76;43.41;71.94;;
63692;Laerm;49838;51.798;10.954;2023-12-22T05:15:11;58.61;46.26;72.45;;
63692;Laerm;49838;51.798;10.954;2023-12-22T05:17:38;52.39;43.25;67.72;;
63692;Laerm;49838;51.798;10.954;2023-12-22T05:20:07;64.69;45.97;86.36;;
63692;Laerm;49838;51.798;10.954;2023-12-22T05:22:36;57.27;45.44;73.17;;
63692;Laerm;49838;51.798;10.954;2023-12-22T05:25:04;58.94;44.52;74.71;;
63692;Laerm;49838;51.798;10.954;2023-12-22T05:27:31;59.66;44.82;74.21;;
63692;Laerm;49838;51.798;10.954;2023-12-22T05:30:00;59.38;46.84;76.71;;
63692;Laerm;49838;51.798;10.954;2023-12-22T05:32:29;58.39;43.72;74.58;;
63692;Laerm;49838;51.798;10.954;2023-12-22T05:34:57;62.19;48.75;77.68;;
63692;Laerm;49838;51.798;10.954;2023-12-22T05:37:24;59.14;45.25;78.37;;
63692;Laerm;49838;51.798;10.954;2023-12-22T05:39:51;56.19;46.52;68.27;;
63692;Laerm;49838;51.798;10.954;2023-12-22T05:42:19;56.71;43.19;70.51;;
63692;Laerm;49838;51.798;10.954;2023-12-22T05:44:46;61.90;44.60;78.22;;
63692;Laerm;49838;51.798;10.954;2023-12-22T05:47:17;58.45;46.28;77.11;;
63692;Laerm;49838;51.798;10.954;2023-12-22T05:49:46;58.29;46.05;72.47;;
63692;Laerm;49838;51.798;10.954;2023-12-22T05:52:13;64.60;45.95;81.97;;
63692;Laerm;49838;51.798;10.954;2023-12-22T05:54:40;63.65;49.14;80.78;;
63692;Laerm;49838;51.798;10.954;2023-12-22T05:57:07;62.45;47.35;81.72;;
63692;Laerm;49838;51.798;10.954;2023-12-22T05:59:35;59.28;44.97;71.97;;
63692;Laerm;49838;51.798;10.954;2023-12-22T06:02:02;57.79;46.11;74.92;;
63692;Laerm;49838;51.798;10.954;2023-12-22T06:04:31;55.60;49.93;69.53;;
63692;Laerm;49838;51.798;10.954;2023-12-22T06:06:59;60.32;49.02;78.31;;
63692;Laerm;49838;51.798;10.954;2023-12-22T06:09:26;63.34;49.75;82.00;;
63692;Laerm;49838;51.798;10.954;2023-12-22T06:11:53;63.95;46.35;82.69;;
63692;Laerm;49838;51.798;10.954;2023-12-22T06:14:21;60.56;49.15;75.17;;
63692;Laerm;49838;51.798;10.954;2023-12-22T06:16:48;62.30;46.11;81.62;;
63692;Laerm;49838;51.798;10.954;2023-12-22T06:19:16;56.08;46.91;72.90;;
63692;Laerm;49838;51.798;10.954;2023-12-22T06:21:45;60.58;48.52;78.30;;
63692;Laerm;49838;51.798;10.954;2023-12-22T06:24:12;59.31;44.62;73.23;;
63692;Laerm;49838;51.798;10.954;2023-12-22T06:26:40;60.31;44.84;76.94;;
63692;Laerm;49838;51.798;10.954;2023-12-22T06:29:07;60.30;43.99;72.95;;
63692;Laerm;49838;51.798;10.954;2023-12-22T06:31:35;56.54;46.47;76.05;;
63692;Laerm;49838;51.798;10.954;2023-12-22T06:34:02;62.87;49.98;80.84;;
63692;Laerm;49838;51.798;10.954;2023-12-22T06:36:31;61.46;43.62;82.37;;
63692;Laerm;49838;51.798;10.954;2023-12-22T06:38:59;65.18;50.98;82.97;;
63692;Laerm;49838;51.798;10.954;2023-12-22T06:41:27;54.95;45.52;69.86;;
63692;Laerm;49838;51.798;10.954;2023-12-22T06:43:55;62.96;48.92;80.49;;
63692;Laerm;49838;51.798;10.954;2023-12-22T06:46:24;64.27;48.72;84.07;;
63692;Laerm;49838;51.798;10.954;2023-12-22T06:48:53;57.55;48.00;72.13;;
63692;Laerm;49838;51.798;10.954;2023-12-22T06:51:23;57.61;47.44;72.21;;
63692;Laerm;49838;51.798;10.954;2023-12-22T06:53:50;59.27;47.86;71.56;;
63692;Laerm;49838;51.798;10.954;2023-12-22T06:56:20;57.98;46.06;74.79;;
63692;Laerm;49838;51.798;10.954;2023-12-22T06:58:48;63.07;50.04;80.12;;
63692;Laerm;49838;51.798;10.954;2023-12-22T07:01:19;61.77;48.34;74.45;;
63692;Laerm;49838;51.798;10.954;2023-12-22T07:03:47;53.52;47.93;64.44;;
63692;Laerm;49838;51.798;10.954;2023-12-22T07:06:15;58.32;47.07;72.83;;
63692;Laerm;49838;51.798;10.954;2023-12-22T07:08:42;62.29;45.45;85.86;;
63692;Laerm;49838;51.798;10.954;2023-12-22T07:11:10;64.85;50.20;84.10;;
63692;Laerm;49838;51.798;10.954;2023-12-22T07:13:39;61.95;47.00;78.37;;
63692;Laerm;49838;51.798;10.954;2023-12-22T07:16:06;54.61;46.46;67.22;;
63692;Laerm;49838;51.798;10.954;2023-12-22T07:18:33;58.04;48.00;72.77;;
63692;Laerm;49838;51.798;10.954;2023-12-22T07:21:04;59.11;49.29;73.36;;
63692;Laerm;49838;51.798;10.954;2023-12-22T07:23:31;65.65;49.73;84.87;;
63692;Laerm;49838;51.798;10.954;2023-12-22T07:25:59;65.87;46.29;84.36;;
63692;Laerm;49838;51.798;10.954;2023-12-22T07:28:26;62.82;48.15;80.13;;
63692;Laerm;49838;51.798;10.954;2023-12-22T07:30:55;65.36;46.81;85.36;;
63692;Laerm;49838;51.798;10.954;2023-12-22T07:33:22;72.59;60.54;89.03;;
63692;Laerm;49838;51.798;10.954;2023-12-22T07:35:49;68.41;54.71;83.42;;
63692;Laerm;49838;51.798;10.954;2023-12-22T07:38:16;64.37;51.96;80.24;;
63692;Laerm;49838;51.798;10.954;2023-12-22T07:40:43;59.99;48.33;76.02;;
63692;Laerm;49838;51.798;10.954;2023-12-22T07:43:11;60.44;48.73;76.41;;
63692;Laerm;49838;51.798;10.954;2023-12-22T07:45:39;63.46;47.21;87.30;;
63692;Laerm;49838;51.798;10.954;2023-12-22T07:48:08;61.30;47.59;78.16;;
63692;Laerm;49838;51.798;10.954;2023-12-22T07:50:35;59.76;45.26;75.96;;
63692;Laerm;49838;51.798;10.954;2023-12-22T07:53:02;62.73;47.32;76.09;;
63692;Laerm;49838;51.798;10.954;2023-12-22T07:55:30;62.29;44.64;78.38;;
63692;Laerm;49838;51.798;10.954;2023-12-22T07:57:57;56.88;45.53;72.84;;
63692;Laerm;49838;51.798;10.954;2023-12-22T08:00:24;56.92;43.95;75.13;;
63692;Laerm;49838;51.798;10.954;2023-12-22T08:02:52;59.97;45.22;74.00;;
63692;Laerm;49838;51.798;10.954;2023-12-22T08:05:20;62.90;48.35;80.86;;
63692;Laerm;49838;51.798;10.954;2023-12-22T08:07:47;63.20;45.46;77.67;;
63692;Laerm;49838;51.798;10.954;2023-12-22T08:10:15;61.23;43.55;78.40;;
63692;Laerm;49838;51.798;10.954;2023-12-22T08:12:42;62.32;43.40;77.52;;
63692;Laerm;49838;51.798;10.954;2023-12-22T08:15:10;60.71;41.91;78.81;;
63692;Laerm;49838;51.798;10.954;2023-12-22T08:17:45;58.98;40.79;78.72;;
63692;Laerm;49838;51.798;10.954;2023-12-22T08:20:16;54.70;40.35;71.68;;
63692;Laerm;49838;51.798;10.954;2023-12-22T08:22:47;58.24;40.05;75.31;;
63692;Laerm;49838;51.798;10.954;2023-12-22T08:25:15;60.00;42.68;76.96;;
63692;Laerm;49838;51.798;10.954;2023-12-22T08:27:43;64.65;42.53;81.95;;
63692;Laerm;49838;51.798;10.954;2023-12-22T08:30:11;54.00;43.31;70.30;;
63692;Laerm;49838;51.798;10.954;2023-12-22T08:32:38;63.13;46.50;81.07;;
63692;Laerm;49838;51.798;10.954;2023-12-22T08:35:07;67.35;43.05;84.64;;
63692;Laerm;49838;51.798;10.954;2023-12-22T08:37:34;68.76;41.30;88.07;;
63692;Laerm;49838;51.798;10.954;2023-12-22T08:40:03;59.38;40.05;73.64;;
63692;Laerm;49838;51.798;10.954;2023-12-22T08:42:32;55.28;40.22;73.40;;
63692;Laerm;49838;51.798;10.954;2023-12-22T08:44:59;63.38;42.20;76.36;;
63692;Laerm;49838;51.798;10.954;2023-12-22T08:47:26;59.38;38.53;76.31;;
63692;Laerm;49838;51.798;10.954;2023-12-22T08:49:54;67.14;39.37;82.97;;
63692;Laerm;49838;51.798;10.954;2023-12-22T08:52:21;69.54;43.61;80.13;;
63692;Laerm;49838;51.798;10.954;2023-12-22T08:54:48;67.01;42.52;79.11;;
63692;Laerm;49838;51.798;10.954;2023-12-22T08:57:17;66.41;41.86;83.61;;
63692;Laerm;49838;51.798;10.954;2023-12-22T08:59:44;66.92;40.56;81.27;;
63692;Laerm;49838;51.798;10.954;2023-12-22T09:02:12;67.20;44.56;81.30;;
63692;Laerm;49838;51.798;10.954;2023-12-22T09:04:39;67.32;45.38;81.27;;
63692;Laerm;49838;51.798;10.954;2023-12-22T09:07:07;63.98;43.37;80.67;;
63692;Laerm;49838;51.798;10.954;2023-12-22T09:09:36;70.93;50.55;85.24;;
63692;Laerm;49838;51.798;10.954;2023-12-22T09:12:03;69.81;49.24;84.35;;
63692;Laerm;49838;51.798;10.954;2023-12-22T09:14:32;65.46;46.22;80.24;;
63692;Laerm;49838;51.798;10.954;2023-12-22T09:16:59;64.99;46.07;80.14;;
63692;Laerm;49838;51.798;10.954;2023-12-22T09:19:26;65.28;46.42;80.17;;
63692;Laerm;49838;51.798;10.954;2023-12-22T09:21:54;65.27;46.96;82.10;;
63692;Laerm;49838;51.798;10.954;2023-12-22T09:24:21;67.98;49.64;79.77;;
63692;Laerm;49838;51.798;10.954;2023-12-22T09:26:48;64.94;46.32;80.65;;
63692;Laerm;49838;51.798;10.954;2023-12-22T09:29:16;60.34;44.82;79.21;;
63692;Laerm;49838;51.798;10.954;2023-12-22T09:31:45;64.01;46.25;77.72;;
63692;Laerm;49838;51.798;10.954;2023-12-22T09:34:13;65.38;47.59;80.28;;
63692;Laerm;49838;51.798;10.954;2023-12-22T09:36:40;64.50;49.27;83.38;;
63692;Laerm;49838;51.798;10.954;2023-12-22T09:39:07;64.60;46.55;81.96;;
63692;Laerm;49838;51.798;10.954;2023-12-22T09:41:35;64.21;48.68;83.99;;
63692;Laerm;49838;51.798;10.954;2023-12-22T09:44:04;64.86;50.11;79.92;;
63692;Laerm;49838;51.798;10.954;2023-12-22T09:46:34;62.40;47.71;77.58;;
63692;Laerm;49838;51.798;10.954;2023-12-22T09:49:04;65.12;48.52;79.48;;
63692;Laerm;49838;51.798;10.954;2023-12-22T09:51:32;62.27;47.70;77.09;;
63692;Laerm;49838;51.798;10.954;2023-12-22T09:54:01;61.89;47.25;78.07;;
63692;Laerm;49838;51.798;10.954;2023-12-22T09:56:29;58.02;44.52;76.84;;
63692;Laerm;49838;51.798;10.954;2023-12-22T09:58:58;63.06;46.99;76.63;;
63692;Laerm;49838;51.798;10.954;2023-12-22T10:01:27;65.20;44.24;84.20;;
63692;Laerm;49838;51.798;10.954;2023-12-22T10:03:55;58.13;46.12;72.68;;
63692;Laerm;49838;51.798;10.954;2023-12-22T10:06:24;62.50;49.22;77.60;;
63692;Laerm;49838;51.798;10.954;2023-12-22T10:08:52;67.43;46.47;86.43;;
63692;Laerm;49838;51.798;10.954;2023-12-22T10:11:20;60.36;46.37;76.55;;
63692;Laerm;49838;51.798;10.954;2023-12-22T10:13:50;63.42;49.19;76.31;;
63692;Laerm;49838;51.798;10.954;2023-12-22T10:16:19;61.51;46.99;79.89;;
63692;Laerm;49838;51.798;10.954;2023-12-22T10:18:47;61.54;47.90;72.97;;
63692;Laerm;49838;51.798;10.954;2023-12-22T10:21:14;61.75;47.30;79.45;;
63692;Laerm;49838;51.798;10.954;2023-12-22T10:23:43;65.12;49.41;81.52;;
63692;Laerm;49838;51.798;10.954;2023-12-22T10:26:10;65.00;46.53;79.09;;
63692;Laerm;49838;51.798;10.954;2023-12-22T10:28:38;60.09;46.93;76.07;;
63692;Laerm;49838;51.798;10.954;2023-12-22T10:31:06;62.99;48.69;80.99;;
63692;Laerm;49838;51.798;10.954;2023-12-22T10:33:33;62.27;48.25;79.94;;
63692;Laerm;49838;51.798;10.954;2023-12-22T10:36:01;66.20;48.45;81.69;;
63692;Laerm;49838;51.798;10.954;2023-12-22T10:38:32;62.55;46.87;75.95;;
63692;Laerm;49838;51.798;10.954;2023-12-22T10:41:01;62.98;45.16;84.81;;
63692;Laerm;49838;51.798;10.954;2023-12-22T10:43:28;63.55;48.66;81.36;;
63692;Laerm;49838;51.798;10.954;2023-12-22T10:45:56;61.83;48.17;80.94;;
63692;Laerm;49838;51.798;10.954;2023-12-22T10:48:23;61.31;47.38;78.04;;
63692;Laerm;49838;51.798;10.954;2023-12-22T10:50:50;62.14;46.97;76.83;;
63692;Laerm;49838;51.798;10.954;2023-12-22T10:53:17;59.04;45.45;73.69;;
63692;Laerm;49838;51.798;10.954;2023-12-22T10:55:47;61.67;44.89;76.97;;
63692;Laerm;49838;51.798;10.954;2023-12-22T10:58:18;60.68;44.97;75.36;;
63692;Laerm;49838;51.798;10.954;2023-12-22T11:00:45;58.93;44.48;71.58;;
63692;Laerm;49838;51.798;10.954;2023-12-22T11:03:17;57.85;43.99;75.61;;
63692;Laerm;49838;51.798;10.954;2023-12-22T11:05:46;61.59;43.73;75.12;;
63692;Laerm;49838;51.798;10.954;2023-12-22T11:08:14;58.57;42.95;72.53;;
63692;Laerm;49838;51.798;10.954;2023-12-22T11:10:44;65.81;42.13;84.87;;
63692;Laerm;49838;51.798;10.954;2023-12-22T11:13:15;60.14;45.28;72.60;;
63692;Laerm;49838;51.798;10.954;2023-12-22T11:15:44;57.46;42.57;72.22;;
63692;Laerm;49838;51.798;10.954;2023-12-22T11:18:15;54.85;42.28;68.68;;
63692;Laerm;49838;51.798;10.954;2023-12-22T11:20:46;60.98;41.37;74.36;;
63692;Laerm;49838;51.798;10.954;2023-12-22T11:23:18;58.43;43.15;74.37;;
63692;Laerm;49838;51.798;10.954;2023-12-22T11:25:48;58.66;42.57;73.36;;
63692;Laerm;49838;51.798;10.954;2023-12-22T11:28:19;59.90;43.13;74.00;;
63692;Laerm;49838;51.798;10.954;2023-12-22T11:30:52;52.03;43.52;69.73;;
63692;Laerm;49838;51.798;10.954;2023-12-22T11:33:21;60.52;42.30;74.44;;
63692;Laerm;49838;51.798;10.954;2023-12-22T11:35:52;55.06;42.71;71.24;;
63692;Laerm;49838;51.798;10.954;2023-12-22T11:38:25;55.81;41.01;71.84;;
63692;Laerm;49838;51.798;10.954;2023-12-22T11:40:53;54.74;41.01;72.99;;
63692;Laerm;49838;51.798;10.954;2023-12-22T11:43:21;61.69;44.65;76.99;;
63692;Laerm;49838;51.798;10.954;2023-12-22T11:45:49;60.23;43.71;78.28;;
63692;Laerm;49838;51.798;10.954;2023-12-22T11:48:17;59.71;43.46;75.49;;
63692;Laerm;49838;51.798;10.954;2023-12-22T11:50:45;58.78;43.10;77.83;;
63692;Laerm;49838;51.798;10.954;2023-12-22T11:53:20;60.38;44.93;72.14;;
63692;Laerm;49838;51.798;10.954;2023-12-22T11:55:58;60.26;45.41;77.78;;
63692;Laerm;49838;51.798;10.954;2023-12-22T11:58:33;61.42;46.46;82.37;;
63692;Laerm;49838;51.798;10.954;2023-12-22T12:01:01;60.49;47.76;79.20;;
63692;Laerm;49838;51.798;10.954;2023-12-22T12:03:31;55.09;45.83;69.40;;
63692;Laerm;49838;51.798;10.954;2023-12-22T12:06:13;62.19;47.05;77.33;;
63692;Laerm;49838;51.798;10.954;2023-12-22T12:08:41;61.30;48.36;82.09;;
63692;Laerm;49838;51.798;10.954;2023-12-22T12:11:09;62.16;47.23;81.89;;
63692;Laerm;49838;51.798;10.954;2023-12-22T12:13:41;63.63;46.55;81.00;;
63692;Laerm;49838;51.798;10.954;2023-12-22T12:16:12;59.36;46.47;77.06;;
63692;Laerm;49838;51.798;10.954;2023-12-22T12:18:41;62.92;47.64;79.83;;
63692;Laerm;49838;51.798;10.954;2023-12-22T12:21:10;52.29;45.15;66.80;;
63692;Laerm;49838;51.798;10.954;2023-12-22T12:23:42;53.35;45.20;67.82;;
63692;Laerm;49838;51.798;10.954;2023-12-22T12:26:11;58.49;46.90;69.82;;
63692;Laerm;49838;51.798;10.954;2023-12-22T12:28:44;60.60;48.44;76.49;;
63692;Laerm;49838;51.798;10.954;2023-12-22T12:31:13;60.71;48.34;76.17;;
63692;Laerm;49838;51.798;10.954;2023-12-22T12:33:42;62.08;46.36;78.82;;
63692;Laerm;49838;51.798;10.954;2023-12-22T12:36:09;59.21;45.41;73.27;;
63692;Laerm;49838;51.798;10.954;2023-12-22T12:38:45;61.55;46.89;80.34;;
63692;Laerm;49838;51.798;10.954;2023-12-22T12:41:15;61.55;44.73;75.90;;
63692;Laerm;49838;51.798;10.954;2023-12-22T12:43:43;58.07;45.40;73.44;;
63692;Laerm;49838;51.798;10.954;2023-12-22T12:46:11;58.42;47.59;70.51;;
63692;Laerm;49838;51.798;10.954;2023-12-22T12:48:38;57.35;44.80;75.59;;
63692;Laerm;49838;51.798;10.954;2023-12-22T12:51:07;60.08;47.28;74.54;;
63692;Laerm;49838;51.798;10.954;2023-12-22T12:53:37;58.51;47.11;74.54;;
63692;Laerm;49838;51.798;10.954;2023-12-22T12:56:04;60.91;47.12;72.18;;
63692;Laerm;49838;51.798;10.954;2023-12-22T12:58:32;61.23;46.02;79.57;;
63692;Laerm;49838;51.798;10.954;2023-12-22T13:01:04;58.72;48.64;70.65;;
63692;Laerm;49838;51.798;10.954;2023-12-22T13:03:32;59.09;44.67;73.87;;
63692;Laerm;49838;51.798;10.954;2023-12-22T13:06:08;58.66;42.66;71.73;;
63692;Laerm;49838;51.798;10.954;2023-12-22T13:08:34;60.93;44.14;81.35;;
63692;Laerm;49838;51.798;10.954;2023-12-22T13:11:04;56.40;42.50;76.26;;
63692;Laerm;49838;51.798;10.954;2023-12-22T13:13:40;59.83;42.20;76.03;;
63692;Laerm;49838;51.798;10.954;2023-12-22T13:16:07;58.25;44.73;69.63;;
63692;Laerm;49838;51.798;10.954;2023-12-22T13:18:35;57.23;44.33;73.07;;
63692;Laerm;49838;51.798;10.954;2023-12-22T13:21:03;46.66;42.44;59.36;;
63692;Laerm;49838;51.798;10.954;2023-12-22T13:23:32;59.28;43.05;73.43;;
63692;Laerm;49838;51.798;10.954;2023-12-22T13:25:59;58.73;42.51;75.87;;
63692;Laerm;49838;51.798;10.954;2023-12-22T13:28:27;59.47;44.14;83.94;;
63692;Laerm;49838;51.798;10.954;2023-12-22T13:30:55;58.00;44.52;72.46;;
63692;Laerm;49838;51.798;10.954;2023-12-22T13:33:22;63.50;46.93;78.38;;
63692;Laerm;49838;51.798;10.954;2023-12-22T13:35:51;60.12;44.28;74.92;;
63692;Laerm;49838;51.798;10.954;2023-12-22T13:38:18;53.71;42.55;68.95;;